sensor_id;sensor_type;location;lat;lon;timestamp;pressure;altitude;pressure_sealevel;temperature;humidity
14269;BME280;7218;51.480;7.006;2023-12-29T00:02:06;76213.72;;;-143.00;64.23
14269;BME280;7218;51.480;7.006;2023-12-29T00:04:32;76239.69;;;-143.00;64.59
14269;BME280;7218;51.480;7.006;2023-12-29T00:07:01;76169.81;;;-143.00;63.75
14269;BME280;7218;51.480;7.006;2023-12-29T00:09:27;76251.66;;;-143.00;64.67
14269;BME280;7218;51.480;7.006;2023-12-29T00:11:54;76221.72;;;-143.00;64.71
14269;BME280;7218;51.480;7.006;2023-12-29T00:14:20;76239.69;;;-143.00;65.13
14269;BME280;7218;51.480;7.006;2023-12-29T00:16:47;76163.81;;;-143.00;63.76
14269;BME280;7218;51.480;7.006;2023-12-29T00:19:13;76197.75;;;-143.00;63.95
14269;BME280;7218;51.480;7.006;2023-12-29T00:21:40;76159.84;;;-143.00;63.09
14269;BME280;7218;51.480;7.006;2023-12-29T00:24:07;76179.78;;;-143.00;64.32
14269;BME280;7218;51.480;7.006;2023-12-29T00:26:34;76265.63;;;-143.00;65.08
14269;BME280;7218;51.480;7.006;2023-12-29T00:29:00;76233.69;;;-143.00;65.25
14269;BME280;7218;51.480;7.006;2023-12-29T00:31:27;76221.72;;;-143.00;64.49
14269;BME280;7218;51.480;7.006;2023-12-29T00:33:53;76181.78;;;-143.00;64.24
14269;BME280;7218;51.480;7.006;2023-12-29T00:36:20;76239.69;;;-143.00;65.43
14269;BME280;7218;51.480;7.006;2023-12-29T00:38:46;76209.75;;;-143.00;64.58
14269;BME280;7218;51.480;7.006;2023-12-29T00:41:14;76129.88;;;-143.00;63.32
14269;BME280;7218;51.480;7.006;2023-12-29T00:43:41;76193.78;;;-143.00;63.88
14269;BME280;7218;51.480;7.006;2023-12-29T00:46:07;76201.75;;;-143.00;64.60
14269;BME280;7218;51.480;7.006;2023-12-29T00:48:35;76189.78;;;-143.00;64.68
14269;BME280;7218;51.480;7.006;2023-12-29T00:51:01;76221.72;;;-143.00;64.92
14269;BME280;7218;51.480;7.006;2023-12-29T00:53:29;76173.81;;;-143.00;64.38
14269;BME280;7218;51.480;7.006;2023-12-29T00:55:57;76159.84;;;-143.00;63.89
14269;BME280;7218;51.480;7.006;2023-12-29T00:58:25;76177.78;;;-143.00;64.61
14269;BME280;7218;51.480;7.006;2023-12-29T01:00:51;76181.78;;;-143.00;64.44
14269;BME280;7218;51.480;7.006;2023-12-29T01:03:21;76159.84;;;-143.00;63.95
14269;BME280;7218;51.480;7.006;2023-12-29T01:05:48;76161.81;;;-143.00;64.36
14269;BME280;7218;51.480;7.006;2023-12-29T01:08:14;76171.81;;;-143.00;64.16
14269;BME280;7218;51.480;7.006;2023-12-29T01:10:41;76153.84;;;-143.00;64.32
14269;BME280;7218;51.480;7.006;2023-12-29T01:13:07;76163.81;;;-143.00;63.79
14269;BME280;7218;51.480;7.006;2023-12-29T01:15:35;76127.88;;;-143.00;63.42
14269;BME280;7218;51.480;7.006;2023-12-29T01:18:02;76191.78;;;-143.00;64.43
14269;BME280;7218;51.480;7.006;2023-12-29T01:20:28;76145.84;;;-143.00;63.98
14269;BME280;7218;51.480;7.006;2023-12-29T01:22:55;76145.84;;;-143.00;64.04
14269;BME280;7218;51.480;7.006;2023-12-29T01:25:21;76161.81;;;-143.00;64.36
14269;BME280;7218;51.480;7.006;2023-12-29T01:27:49;76135.88;;;-143.00;63.94
14269;BME280;7218;51.480;7.006;2023-12-29T01:30:15;76139.88;;;-143.00;64.33
14269;BME280;7218;51.480;7.006;2023-12-29T01:32:43;76077.97;;;-143.00;62.89
14269;BME280;7218;51.480;7.006;2023-12-29T01:35:10;76157.84;;;-143.00;64.63
14269;BME280;7218;51.480;7.006;2023-12-29T01:37:36;76163.81;;;-143.00;64.87
14269;BME280;7218;51.480;7.006;2023-12-29T01:40:04;76123.91;;;-143.00;63.67
14269;BME280;7218;51.480;7.006;2023-12-29T01:42:30;76177.78;;;-143.00;64.76
14269;BME280;7218;51.480;7.006;2023-12-29T01:44:57;76165.81;;;-143.00;65.10
14269;BME280;7218;51.480;7.006;2023-12-29T01:47:23;76165.81;;;-143.00;65.60
14269;BME280;7218;51.480;7.006;2023-12-29T01:49:51;76143.88;;;-143.00;66.27
14269;BME280;7218;51.480;7.006;2023-12-29T01:52:18;76189.78;;;-143.00;66.77
14269;BME280;7218;51.480;7.006;2023-12-29T01:54:46;76201.75;;;-143.00;67.38
14269;BME280;7218;51.480;7.006;2023-12-29T01:57:14;76147.84;;;-143.00;66.81
14269;BME280;7218;51.480;7.006;2023-12-29T01:59:41;76163.81;;;-143.00;67.02
14269;BME280;7218;51.480;7.006;2023-12-29T02:02:08;76189.78;;;-143.00;68.53
14269;BME280;7218;51.480;7.006;2023-12-29T02:04:36;76169.81;;;-143.00;69.07
14269;BME280;7218;51.480;7.006;2023-12-29T02:07:05;76221.72;;;-143.00;70.02
14269;BME280;7218;51.480;7.006;2023-12-29T02:09:32;76189.78;;;-143.00;70.82
14269;BME280;7218;51.480;7.006;2023-12-29T02:11:59;76223.72;;;-143.00;72.41
14269;BME280;7218;51.480;7.006;2023-12-29T02:14:26;76277.63;;;-143.00;74.70
14269;BME280;7218;51.480;7.006;2023-12-29T02:17:00;76199.75;;;-143.00;75.99
14269;BME280;7218;51.480;7.006;2023-12-29T02:19:37;76243.69;;;-143.00;76.89
14269;BME280;7218;51.480;7.006;2023-12-29T02:22:06;76241.69;;;-143.00;78.05
14269;BME280;7218;51.480;7.006;2023-12-29T02:24:34;76313.56;;;-143.00;78.84
14269;BME280;7218;51.480;7.006;2023-12-29T02:27:07;76203.75;;;-143.00;76.79
14269;BME280;7218;51.480;7.006;2023-12-29T02:29:38;76309.56;;;-143.00;78.60
14269;BME280;7218;51.480;7.006;2023-12-29T02:32:10;76243.69;;;-143.00;77.75
14269;BME280;7218;51.480;7.006;2023-12-29T02:34:40;76237.69;;;-143.00;77.59
14269;BME280;7218;51.480;7.006;2023-12-29T02:37:07;76233.69;;;-143.00;77.59
14269;BME280;7218;51.480;7.006;2023-12-29T02:39:34;76313.56;;;-143.00;79.10
14269;BME280;7218;51.480;7.006;2023-12-29T02:42:01;76241.69;;;-143.00;77.65
14269;BME280;7218;51.480;7.006;2023-12-29T02:44:29;76245.69;;;-143.00;78.84
14269;BME280;7218;51.480;7.006;2023-12-29T02:46:55;76241.69;;;-143.00;78.70
14269;BME280;7218;51.480;7.006;2023-12-29T02:49:22;76263.66;;;-143.00;79.14
14269;BME280;7218;51.480;7.006;2023-12-29T02:51:48;76277.63;;;-143.00;79.69
14269;BME280;7218;51.480;7.006;2023-12-29T02:54:15;76249.66;;;-143.00;79.06
14269;BME280;7218;51.480;7.006;2023-12-29T02:56:42;76189.78;;;-143.00;78.23
14269;BME280;7218;51.480;7.006;2023-12-29T02:59:08;76153.84;;;-143.00;77.11
14269;BME280;7218;51.480;7.006;2023-12-29T03:01:36;76219.72;;;-143.00;78.39
14269;BME280;7218;51.480;7.006;2023-12-29T03:04:03;76223.72;;;-143.00;78.40
14269;BME280;7218;51.480;7.006;2023-12-29T03:06:29;76237.69;;;-143.00;78.23
14269;BME280;7218;51.480;7.006;2023-12-29T03:08:56;76225.72;;;-143.00;78.10
14269;BME280;7218;51.480;7.006;2023-12-29T03:11:22;76221.72;;;-143.00;77.71
14269;BME280;7218;51.480;7.006;2023-12-29T03:13:48;76223.72;;;-143.00;77.45
14269;BME280;7218;51.480;7.006;2023-12-29T03:16:15;76213.72;;;-143.00;77.70
14269;BME280;7218;51.480;7.006;2023-12-29T03:18:43;76213.72;;;-143.00;78.16
14269;BME280;7218;51.480;7.006;2023-12-29T03:21:09;76177.78;;;-143.00;76.71
14269;BME280;7218;51.480;7.006;2023-12-29T03:23:36;76157.84;;;-143.00;76.39
14269;BME280;7218;51.480;7.006;2023-12-29T03:26:02;76249.66;;;-143.00;78.15
14269;BME280;7218;51.480;7.006;2023-12-29T03:28:28;76241.69;;;-143.00;77.52
14269;BME280;7218;51.480;7.006;2023-12-29T03:30:55;76243.69;;;-143.00;77.52
14269;BME280;7218;51.480;7.006;2023-12-29T03:33:21;76177.78;;;-143.00;75.88
14269;BME280;7218;51.480;7.006;2023-12-29T03:35:49;76217.72;;;-143.00;77.14
14269;BME280;7218;51.480;7.006;2023-12-29T03:38:16;76237.69;;;-143.00;77.83
14269;BME280;7218;51.480;7.006;2023-12-29T03:40:42;76205.75;;;-143.00;76.66
14269;BME280;7218;51.480;7.006;2023-12-29T03:43:09;76185.78;;;-143.00;76.05
14269;BME280;7218;51.480;7.006;2023-12-29T03:45:35;76185.78;;;-143.00;76.83
14269;BME280;7218;51.480;7.006;2023-12-29T03:48:02;76181.78;;;-143.00;76.64
14269;BME280;7218;51.480;7.006;2023-12-29T03:50:28;76225.72;;;-143.00;76.80
14269;BME280;7218;51.480;7.006;2023-12-29T03:52:56;76215.72;;;-143.00;77.00
14269;BME280;7218;51.480;7.006;2023-12-29T03:55:23;76205.75;;;-143.00;76.60
14269;BME280;7218;51.480;7.006;2023-12-29T03:57:49;76241.69;;;-143.00;76.69
14269;BME280;7218;51.480;7.006;2023-12-29T04:00:16;76261.66;;;-143.00;77.42
14269;BME280;7218;51.480;7.006;2023-12-29T04:02:43;76231.69;;;-143.00;77.08
14269;BME280;7218;51.480;7.006;2023-12-29T04:05:09;76221.72;;;-143.00;77.11
14269;BME280;7218;51.480;7.006;2023-12-29T04:07:36;76165.81;;;-143.00;74.96
14269;BME280;7218;51.480;7.006;2023-12-29T04:10:04;76169.81;;;-143.00;75.46
14269;BME280;7218;51.480;7.006;2023-12-29T04:12:31;76191.78;;;-143.00;75.65
14269;BME280;7218;51.480;7.006;2023-12-29T04:14:57;76253.66;;;-143.00;76.27
14269;BME280;7218;51.480;7.006;2023-12-29T04:17:24;76203.75;;;-143.00;75.48
14269;BME280;7218;51.480;7.006;2023-12-29T04:19:50;76185.78;;;-143.00;75.41
14269;BME280;7218;51.480;7.006;2023-12-29T04:22:17;76171.81;;;-143.00;74.71
14269;BME280;7218;51.480;7.006;2023-12-29T04:24:43;76161.81;;;-143.00;74.14
14269;BME280;7218;51.480;7.006;2023-12-29T04:27:11;76175.81;;;-143.00;74.73
14269;BME280;7218;51.480;7.006;2023-12-29T04:29:37;76173.81;;;-143.00;74.35
14269;BME280;7218;51.480;7.006;2023-12-29T04:32:04;76151.84;;;-143.00;74.19
14269;BME280;7218;51.480;7.006;2023-12-29T04:34:31;76141.88;;;-143.00;72.92
14269;BME280;7218;51.480;7.006;2023-12-29T04:36:57;76129.88;;;-143.00;72.88
14269;BME280;7218;51.480;7.006;2023-12-29T04:39:24;76165.81;;;-143.00;73.03
14269;BME280;7218;51.480;7.006;2023-12-29T04:41:50;76159.84;;;-143.00;73.09
14269;BME280;7218;51.480;7.006;2023-12-29T04:44:18;76129.88;;;-143.00;72.46
14269;BME280;7218;51.480;7.006;2023-12-29T04:46:45;76167.81;;;-143.00;73.18
14269;BME280;7218;51.480;7.006;2023-12-29T04:49:11;76133.88;;;-143.00;72.26
14269;BME280;7218;51.480;7.006;2023-12-29T04:51:38;76169.81;;;-143.00;72.88
14269;BME280;7218;51.480;7.006;2023-12-29T04:54:04;76161.81;;;-143.00;72.67
14269;BME280;7218;51.480;7.006;2023-12-29T04:56:31;76151.84;;;-143.00;72.82
14269;BME280;7218;51.480;7.006;2023-12-29T04:58:57;76181.78;;;-143.00;74.17
14269;BME280;7218;51.480;7.006;2023-12-29T05:01:25;76137.88;;;-143.00;73.24
14269;BME280;7218;51.480;7.006;2023-12-29T05:03:53;76149.84;;;-143.00;73.34
14269;BME280;7218;51.480;7.006;2023-12-29T05:06:19;76215.72;;;-143.00;74.94
14269;BME280;7218;51.480;7.006;2023-12-29T05:08:46;76201.75;;;-143.00;73.85
14269;BME280;7218;51.480;7.006;2023-12-29T05:11:12;76193.78;;;-143.00;74.06
14269;BME280;7218;51.480;7.006;2023-12-29T05:13:39;76265.63;;;-143.00;75.41
14269;BME280;7218;51.480;7.006;2023-12-29T05:16:05;76197.75;;;-143.00;73.79
14269;BME280;7218;51.480;7.006;2023-12-29T05:18:33;76173.81;;;-143.00;73.97
14269;BME280;7218;51.480;7.006;2023-12-29T05:21:00;76205.75;;;-143.00;73.79
14269;BME280;7218;51.480;7.006;2023-12-29T05:23:26;76199.75;;;-143.00;73.54
14269;BME280;7218;51.480;7.006;2023-12-29T05:25:53;76173.81;;;-143.00;72.92
14269;BME280;7218;51.480;7.006;2023-12-29T05:28:19;76217.72;;;-143.00;73.35
14269;BME280;7218;51.480;7.006;2023-12-29T05:30:46;76245.69;;;-143.00;73.59
14269;BME280;7218;51.480;7.006;2023-12-29T05:33:12;76239.69;;;-143.00;73.67
14269;BME280;7218;51.480;7.006;2023-12-29T05:35:40;76183.78;;;-143.00;72.67
14269;BME280;7218;51.480;7.006;2023-12-29T05:38:07;76203.75;;;-143.00;71.82
14269;BME280;7218;51.480;7.006;2023-12-29T05:40:33;76221.72;;;-143.00;72.43
14269;BME280;7218;51.480;7.006;2023-12-29T05:43:00;76201.75;;;-143.00;72.37
14269;BME280;7218;51.480;7.006;2023-12-29T05:45:26;76179.78;;;-143.00;70.88
14269;BME280;7218;51.480;7.006;2023-12-29T05:47:53;76141.88;;;-143.00;70.26
14269;BME280;7218;51.480;7.006;2023-12-29T05:50:19;76197.75;;;-143.00;71.21
14269;BME280;7218;51.480;7.006;2023-12-29T05:52:47;76157.84;;;-143.00;70.86
14269;BME280;7218;51.480;7.006;2023-12-29T05:55:17;76173.81;;;-143.00;70.54
14269;BME280;7218;51.480;7.006;2023-12-29T05:57:43;76173.81;;;-143.00;70.06
14269;BME280;7218;51.480;7.006;2023-12-29T06:00:11;76183.78;;;-143.00;70.94
14269;BME280;7218;51.480;7.006;2023-12-29T06:02:39;76193.78;;;-143.00;70.70
14269;BME280;7218;51.480;7.006;2023-12-29T06:05:06;76161.81;;;-143.00;69.63
14269;BME280;7218;51.480;7.006;2023-12-29T06:07:33;76199.75;;;-143.00;70.05
14269;BME280;7218;51.480;7.006;2023-12-29T06:10:01;76141.88;;;-143.00;69.27
14269;BME280;7218;51.480;7.006;2023-12-29T06:12:28;76185.78;;;-143.00;69.95
14269;BME280;7218;51.480;7.006;2023-12-29T06:14:55;76169.81;;;-143.00;69.16
14269;BME280;7218;51.480;7.006;2023-12-29T06:17:21;76177.78;;;-143.00;69.69
14269;BME280;7218;51.480;7.006;2023-12-29T06:19:47;76221.72;;;-143.00;71.02
14269;BME280;7218;51.480;7.006;2023-12-29T06:22:14;76177.78;;;-143.00;69.75
14269;BME280;7218;51.480;7.006;2023-12-29T06:24:41;76177.78;;;-143.00;70.16
14269;BME280;7218;51.480;7.006;2023-12-29T06:27:09;76209.75;;;-143.00;71.12
14269;BME280;7218;51.480;7.006;2023-12-29T06:29:35;76223.72;;;-143.00;71.18
14269;BME280;7218;51.480;7.006;2023-12-29T06:32:02;76205.75;;;-143.00;70.89
14269;BME280;7218;51.480;7.006;2023-12-29T06:34:29;76203.75;;;-143.00;70.63
14269;BME280;7218;51.480;7.006;2023-12-29T06:36:56;76221.72;;;-143.00;71.14
14269;BME280;7218;51.480;7.006;2023-12-29T06:39:22;76195.75;;;-143.00;70.73
14269;BME280;7218;51.480;7.006;2023-12-29T06:41:49;76201.75;;;-143.00;70.33
14269;BME280;7218;51.480;7.006;2023-12-29T06:44:16;76193.78;;;-143.00;70.84
14269;BME280;7218;51.480;7.006;2023-12-29T06:46:43;76197.75;;;-143.00;70.31
14269;BME280;7218;51.480;7.006;2023-12-29T06:49:10;76127.88;;;-143.00;69.15
14269;BME280;7218;51.480;7.006;2023-12-29T06:51:37;76131.88;;;-143.00;68.64
14269;BME280;7218;51.480;7.006;2023-12-29T06:54:04;76161.81;;;-143.00;68.90
14269;BME280;7218;51.480;7.006;2023-12-29T06:56:30;76179.78;;;-143.00;70.21
14269;BME280;7218;51.480;7.006;2023-12-29T06:58:57;76179.78;;;-143.00;70.33
14269;BME280;7218;51.480;7.006;2023-12-29T07:01:24;76173.81;;;-143.00;70.28
14269;BME280;7218;51.480;7.006;2023-12-29T07:03:51;76175.81;;;-143.00;70.01
14269;BME280;7218;51.480;7.006;2023-12-29T07:06:17;76155.84;;;-143.00;69.70
14269;BME280;7218;51.480;7.006;2023-12-29T07:08:44;76185.78;;;-143.00;70.68
14269;BME280;7218;51.480;7.006;2023-12-29T07:11:11;76159.84;;;-143.00;69.81
14269;BME280;7218;51.480;7.006;2023-12-29T07:13:38;76223.72;;;-143.00;71.44
14269;BME280;7218;51.480;7.006;2023-12-29T07:16:05;76189.78;;;-143.00;71.15
14269;BME280;7218;51.480;7.006;2023-12-29T07:18:33;76141.88;;;-143.00;72.12
14269;BME280;7218;51.480;7.006;2023-12-29T07:20:59;76173.81;;;-143.00;73.37
14269;BME280;7218;51.480;7.006;2023-12-29T07:23:26;76251.66;;;-143.00;75.09
14269;BME280;7218;51.480;7.006;2023-12-29T07:25:52;76185.78;;;-143.00;74.08
14269;BME280;7218;51.480;7.006;2023-12-29T07:28:18;76271.63;;;-143.00;77.32
14269;BME280;7218;51.480;7.006;2023-12-29T07:30:45;76215.72;;;-143.00;75.30
14269;BME280;7218;51.480;7.006;2023-12-29T07:33:10;76231.69;;;-143.00;77.08
14269;BME280;7218;51.480;7.006;2023-12-29T07:35:38;76233.69;;;-143.00;77.91
14269;BME280;7218;51.480;7.006;2023-12-29T07:38:05;76253.66;;;-143.00;78.89
14269;BME280;7218;51.480;7.006;2023-12-29T07:40:31;76233.69;;;-143.00;78.50
14269;BME280;7218;51.480;7.006;2023-12-29T07:42:57;76299.59;;;-143.00;80.15
14269;BME280;7218;51.480;7.006;2023-12-29T07:45:24;76233.69;;;-143.00;79.44
14269;BME280;7218;51.480;7.006;2023-12-29T07:47:50;76235.69;;;-143.00;79.00
14269;BME280;7218;51.480;7.006;2023-12-29T07:50:17;76193.78;;;-143.00;77.88
14269;BME280;7218;51.480;7.006;2023-12-29T07:52:45;76229.72;;;-143.00;79.81
14269;BME280;7218;51.480;7.006;2023-12-29T07:55:11;76205.75;;;-143.00;78.24
14269;BME280;7218;51.480;7.006;2023-12-29T07:57:38;76245.69;;;-143.00;79.22
14269;BME280;7218;51.480;7.006;2023-12-29T08:00:05;76227.72;;;-143.00;79.18
14269;BME280;7218;51.480;7.006;2023-12-29T08:02:32;76263.66;;;-143.00;79.45
14269;BME280;7218;51.480;7.006;2023-12-29T08:04:59;76237.69;;;-143.00;78.48
14269;BME280;7218;51.480;7.006;2023-12-29T08:07:25;76239.69;;;-143.00;78.41
14269;BME280;7218;51.480;7.006;2023-12-29T08:09:53;76245.69;;;-143.00;79.54
14269;BME280;7218;51.480;7.006;2023-12-29T08:12:19;76225.72;;;-143.00;78.16
14269;BME280;7218;51.480;7.006;2023-12-29T08:14:46;76191.78;;;-143.00;77.70
14269;BME280;7218;51.480;7.006;2023-12-29T08:17:13;76271.63;;;-143.00;79.77
14269;BME280;7218;51.480;7.006;2023-12-29T08:19:40;76247.66;;;-143.00;79.35
14269;BME280;7218;51.480;7.006;2023-12-29T08:22:06;76247.66;;;-143.00;79.01
14269;BME280;7218;51.480;7.006;2023-12-29T08:24:33;76235.69;;;-143.00;78.63
14269;BME280;7218;51.480;7.006;2023-12-29T08:27:02;76179.78;;;-143.00;78.45
14269;BME280;7218;51.480;7.006;2023-12-29T08:29:28;76205.75;;;-143.00;77.97
14269;BME280;7218;51.480;7.006;2023-12-29T08:31:55;76233.69;;;-143.00;79.09
14269;BME280;7218;51.480;7.006;2023-12-29T08:34:21;76185.78;;;-143.00;78.66
14269;BME280;7218;51.480;7.006;2023-12-29T08:36:48;76213.72;;;-143.00;79.01
14269;BME280;7218;51.480;7.006;2023-12-29T08:39:14;76233.69;;;-143.00;79.56
14269;BME280;7218;51.480;7.006;2023-12-29T08:41:41;76237.69;;;-143.00;80.38
14269;BME280;7218;51.480;7.006;2023-12-29T08:44:09;76203.75;;;-143.00;80.02
14269;BME280;7218;51.480;7.006;2023-12-29T08:46:35;76231.69;;;-143.00;79.55
14269;BME280;7218;51.480;7.006;2023-12-29T08:49:02;76189.78;;;-143.00;79.77
14269;BME280;7218;51.480;7.006;2023-12-29T08:51:28;76237.69;;;-143.00;80.01
14269;BME280;7218;51.480;7.006;2023-12-29T08:53:55;76245.69;;;-143.00;80.83
14269;BME280;7218;51.480;7.006;2023-12-29T08:56:21;76263.66;;;-143.00;81.26
14269;BME280;7218;51.480;7.006;2023-12-29T08:58:48;76249.66;;;-143.00;80.36
14269;BME280;7218;51.480;7.006;2023-12-29T09:01:15;76205.75;;;-143.00;79.72
14269;BME280;7218;51.480;7.006;2023-12-29T09:03:42;76265.63;;;-143.00;80.53
14269;BME280;7218;51.480;7.006;2023-12-29T09:06:08;76229.72;;;-143.00;79.34
14269;BME280;7218;51.480;7.006;2023-12-29T09:08:35;76261.66;;;-143.00;81.17
14269;BME280;7218;51.480;7.006;2023-12-29T09:11:02;76259.66;;;-143.00;80.73
14269;BME280;7218;51.480;7.006;2023-12-29T09:13:28;76265.63;;;-143.00;81.14
14269;BME280;7218;51.480;7.006;2023-12-29T09:15:55;76211.75;;;-143.00;79.97
14269;BME280;7218;51.480;7.006;2023-12-29T09:18:24;76145.84;;;-143.00;78.18
14269;BME280;7218;51.480;7.006;2023-12-29T09:20:50;76221.72;;;-143.00;80.62
14269;BME280;7218;51.480;7.006;2023-12-29T09:23:17;76243.69;;;-143.00;81.68
14269;BME280;7218;51.480;7.006;2023-12-29T09:25:43;76225.72;;;-143.00;81.51
14269;BME280;7218;51.480;7.006;2023-12-29T09:28:10;76241.69;;;-143.00;81.46
14269;BME280;7218;51.480;7.006;2023-12-29T09:30:37;76255.66;;;-143.00;82.41
14269;BME280;7218;51.480;7.006;2023-12-29T09:33:04;76253.66;;;-143.00;82.65
14269;BME280;7218;51.480;7.006;2023-12-29T09:35:32;76199.75;;;-143.00;81.31
14269;BME280;7218;51.480;7.006;2023-12-29T09:37:58;76243.69;;;-143.00;81.86
14269;BME280;7218;51.480;7.006;2023-12-29T09:40:25;76203.75;;;-143.00;80.19
14269;BME280;7218;51.480;7.006;2023-12-29T09:42:52;76297.59;;;-143.00;82.29
14269;BME280;7218;51.480;7.006;2023-12-29T09:45:23;76239.69;;;-143.00;81.83
14269;BME280;7218;51.480;7.006;2023-12-29T09:47:51;76221.72;;;-143.00;81.22
14269;BME280;7218;51.480;7.006;2023-12-29T09:50:19;76277.63;;;-143.00;82.48
14269;BME280;7218;51.480;7.006;2023-12-29T09:52:48;76253.66;;;-143.00;82.49
14269;BME280;7218;51.480;7.006;2023-12-29T09:55:15;76245.69;;;-143.00;81.87
14269;BME280;7218;51.480;7.006;2023-12-29T09:57:42;76249.66;;;-143.00;82.48
14269;BME280;7218;51.480;7.006;2023-12-29T10:00:10;76277.63;;;-143.00;84.00
14269;BME280;7218;51.480;7.006;2023-12-29T10:02:38;76291.59;;;-143.00;83.57
14269;BME280;7218;51.480;7.006;2023-12-29T10:05:05;76251.66;;;-143.00;84.04
14269;BME280;7218;51.480;7.006;2023-12-29T10:07:35;76263.66;;;-143.00;84.76
14269;BME280;7218;51.480;7.006;2023-12-29T10:10:05;76267.63;;;-143.00;85.96
14269;BME280;7218;51.480;7.006;2023-12-29T10:12:33;76259.66;;;-143.00;84.73
14269;BME280;7218;51.480;7.006;2023-12-29T10:15:05;76305.56;;;-143.00;86.12
14269;BME280;7218;51.480;7.006;2023-12-29T10:17:41;76285.59;;;-143.00;86.91
14269;BME280;7218;51.480;7.006;2023-12-29T10:20:16;76227.72;;;-143.00;87.19
14269;BME280;7218;51.480;7.006;2023-12-29T10:22:51;76219.72;;;-143.00;86.91
14269;BME280;7218;51.480;7.006;2023-12-29T10:25:22;76259.66;;;-143.00;87.57
14269;BME280;7218;51.480;7.006;2023-12-29T10:27:49;76331.53;;;-143.00;87.26
14269;BME280;7218;51.480;7.006;2023-12-29T10:30:17;76321.53;;;-143.00;88.59
14269;BME280;7218;51.480;7.006;2023-12-29T10:32:49;76285.59;;;-143.00;88.19
14269;BME280;7218;51.480;7.006;2023-12-29T10:35:16;76255.66;;;-143.00;87.21
14269;BME280;7218;51.480;7.006;2023-12-29T10:37:43;76219.72;;;-143.00;85.28
14269;BME280;7218;51.480;7.006;2023-12-29T10:40:16;76245.69;;;-143.00;86.37
14269;BME280;7218;51.480;7.006;2023-12-29T10:42:52;76229.72;;;-143.00;86.62
14269;BME280;7218;51.480;7.006;2023-12-29T10:45:20;76257.66;;;-143.00;87.16
14269;BME280;7218;51.480;7.006;2023-12-29T10:47:47;76285.59;;;-143.00;87.31
14269;BME280;7218;51.480;7.006;2023-12-29T10:50:13;76269.63;;;-143.00;86.95
14269;BME280;7218;51.480;7.006;2023-12-29T10:52:40;76229.72;;;-143.00;86.22
14269;BME280;7218;51.480;7.006;2023-12-29T10:55:08;76223.72;;;-143.00;86.40
14269;BME280;7218;51.480;7.006;2023-12-29T10:57:36;76317.56;;;-143.00;88.20
14269;BME280;7218;51.480;7.006;2023-12-29T11:00:05;76265.63;;;-143.00;86.55
14269;BME280;7218;51.480;7.006;2023-12-29T11:02:33;76249.66;;;-143.00;85.18
14269;BME280;7218;51.480;7.006;2023-12-29T11:05:03;76189.78;;;-143.00;83.97
14269;BME280;7218;51.480;7.006;2023-12-29T11:07:34;76175.81;;;-143.00;83.07
14269;BME280;7218;51.480;7.006;2023-12-29T11:10:03;76201.75;;;-143.00;83.25
14269;BME280;7218;51.480;7.006;2023-12-29T11:12:32;76213.72;;;-143.00;83.00
14269;BME280;7218;51.480;7.006;2023-12-29T11:14:59;76195.75;;;-143.00;83.17
14269;BME280;7218;51.480;7.006;2023-12-29T11:17:29;76169.81;;;-143.00;82.85
14269;BME280;7218;51.480;7.006;2023-12-29T11:19:58;76227.72;;;-143.00;83.57
14269;BME280;7218;51.480;7.006;2023-12-29T11:22:28;76181.78;;;-143.00;83.79
14269;BME280;7218;51.480;7.006;2023-12-29T11:24:55;76197.75;;;-143.00;84.04
14269;BME280;7218;51.480;7.006;2023-12-29T11:27:25;76185.78;;;-143.00;83.91
14269;BME280;7218;51.480;7.006;2023-12-29T11:29:53;76137.88;;;-143.00;82.47
14269;BME280;7218;51.480;7.006;2023-12-29T11:32:22;76201.75;;;-143.00;83.97
14269;BME280;7218;51.480;7.006;2023-12-29T11:34:56;76127.88;;;-143.00;82.95
14269;BME280;7218;51.480;7.006;2023-12-29T11:37:33;76127.88;;;-143.00;83.12
14269;BME280;7218;51.480;7.006;2023-12-29T11:40:11;76193.78;;;-143.00;84.19
14269;BME280;7218;51.480;7.006;2023-12-29T11:42:41;76205.75;;;-143.00;85.05
14269;BME280;7218;51.480;7.006;2023-12-29T11:45:26;76113.91;;;-143.00;82.07
14269;BME280;7218;51.480;7.006;2023-12-29T11:47:54;76149.84;;;-143.00;82.92
14269;BME280;7218;51.480;7.006;2023-12-29T11:50:29;76105.94;;;-143.00;81.87
14269;BME280;7218;51.480;7.006;2023-12-29T11:52:57;76183.78;;;-143.00;82.51
14269;BME280;7218;51.480;7.006;2023-12-29T11:55:28;76197.75;;;-143.00;83.04
14269;BME280;7218;51.480;7.006;2023-12-29T11:57:55;76197.75;;;-143.00;82.02
14269;BME280;7218;51.480;7.006;2023-12-29T12:00:40;76133.88;;;-143.00;81.20
14269;BME280;7218;51.480;7.006;2023-12-29T12:03:14;76083.97;;;-143.00;80.42
14269;BME280;7218;51.480;7.006;2023-12-29T12:05:48;76149.84;;;-143.00;82.58
14269;BME280;7218;51.480;7.006;2023-12-29T12:08:29;76079.97;;;-143.00;80.09
14269;BME280;7218;51.480;7.006;2023-12-29T12:10:57;76169.81;;;-143.00;82.56
14269;BME280;7218;51.480;7.006;2023-12-29T12:13:42;76127.88;;;-143.00;81.56
14269;BME280;7218;51.480;7.006;2023-12-29T12:16:09;76191.78;;;-143.00;82.75
14269;BME280;7218;51.480;7.006;2023-12-29T12:18:38;76129.88;;;-143.00;82.85
14269;BME280;7218;51.480;7.006;2023-12-29T12:21:07;76121.91;;;-143.00;82.80
14269;BME280;7218;51.480;7.006;2023-12-29T12:23:34;76103.94;;;-143.00;82.24
14269;BME280;7218;51.480;7.006;2023-12-29T12:26:03;76101.94;;;-143.00;82.09
14269;BME280;7218;51.480;7.006;2023-12-29T12:28:31;76097.94;;;-143.00;81.07
14269;BME280;7218;51.480;7.006;2023-12-29T12:31:05;76117.91;;;-143.00;83.12
14269;BME280;7218;51.480;7.006;2023-12-29T12:33:32;76217.72;;;-143.00;84.47
14269;BME280;7218;51.480;7.006;2023-12-29T12:35:59;76201.75;;;-143.00;84.44
14269;BME280;7218;51.480;7.006;2023-12-29T12:38:27;76169.81;;;-143.00;83.71
14269;BME280;7218;51.480;7.006;2023-12-29T12:40:55;76155.84;;;-143.00;82.80
14269;BME280;7218;51.480;7.006;2023-12-29T12:43:23;76107.94;;;-143.00;81.92
14269;BME280;7218;51.480;7.006;2023-12-29T12:45:54;76109.91;;;-143.00;82.68
14269;BME280;7218;51.480;7.006;2023-12-29T12:48:23;76155.84;;;-143.00;83.62
14269;BME280;7218;51.480;7.006;2023-12-29T12:50:54;76181.78;;;-143.00;84.30
14269;BME280;7218;51.480;7.006;2023-12-29T12:53:22;76157.84;;;-143.00;84.33